createdAt,value
2018-02-24T00:01:18.309Z,64.30
2018-02-24T00:03:44.515Z,64.40
2018-02-24T00:06:10.733Z,64.80
2018-02-24T00:08:36.925Z,65.10
2018-02-24T00:11:03.102Z,65.30
2018-02-24T00:13:29.280Z,65.60
2018-02-24T00:15:55.772Z,65.60
2018-02-24T00:18:22.652Z,66.20
2018-02-24T00:20:48.848Z,66.10
2018-02-24T00:23:15.797Z,66.20
2018-02-24T00:25:42.743Z,66.40
2018-02-24T00:28:08.961Z,66.30
2018-02-24T00:30:35.135Z,66.80
2018-02-24T00:33:01.380Z,67.00
2018-02-24T00:35:27.568Z,66.40
2018-02-24T00:37:53.787Z,65.70
2018-02-24T00:40:19.948Z,66.40
2018-02-24T00:42:46.889Z,65.70
2018-02-24T00:45:13.800Z,65.20
2018-02-24T00:47:39.988Z,65.80
2018-02-24T00:50:07.076Z,65.40
2018-02-24T00:52:33.244Z,65.40
2018-02-24T00:54:59.442Z,65.40
2018-02-24T00:57:25.619Z,65.10
2018-02-24T00:59:51.772Z,64.80
2018-02-24T01:02:17.952Z,64.60
2018-02-24T01:04:44.135Z,64.80
2018-02-24T01:07:10.350Z,64.90
2018-02-24T01:09:36.516Z,64.40
2018-02-24T01:12:02.711Z,64.70
2018-02-24T01:14:28.882Z,65.00
2018-02-24T01:16:55.280Z,65.00
2018-02-24T01:19:21.475Z,65.30
2018-02-24T01:21:47.656Z,65.10
2018-02-24T01:24:13.803Z,64.60
2018-02-24T01:26:40.186Z,64.80
2018-02-24T01:29:06.350Z,64.90
2018-02-24T01:31:33.269Z,65.90
2018-02-24T01:33:59.448Z,65.20
2018-02-24T01:36:26.339Z,65.40
2018-02-24T01:38:52.521Z,65.90
2018-02-24T01:41:18.689Z,65.80
2018-02-24T01:43:45.604Z,65.80
2018-02-24T01:46:12.531Z,65.80
2018-02-24T01:48:38.727Z,65.80
2018-02-24T01:51:04.936Z,65.80
2018-02-24T01:53:31.124Z,66.70
2018-02-24T01:55:58.059Z,66.10
2018-02-24T01:58:24.268Z,66.00
2018-02-24T02:00:51.148Z,66.30
2018-02-24T02:03:17.330Z,66.30
2018-02-24T02:05:43.511Z,66.60
2018-02-24T02:08:09.664Z,67.20
2018-02-24T02:10:35.855Z,66.90
2018-02-24T02:13:02.739Z,67.90
2018-02-24T02:15:28.915Z,67.80
2018-02-24T02:17:55.608Z,68.10
2018-02-24T02:20:21.764Z,68.00
2018-02-24T02:22:47.980Z,68.10
2018-02-24T02:25:14.180Z,67.50
2018-02-24T02:27:41.096Z,68.40
2018-02-24T02:30:07.256Z,68.40
2018-02-24T02:32:34.424Z,67.90
2018-02-24T02:35:00.631Z,67.90
2018-02-24T02:37:26.787Z,68.10
2018-02-24T02:39:53.692Z,68.00
2018-02-24T02:42:19.870Z,68.00
2018-02-24T02:44:46.772Z,68.30
2018-02-24T02:47:12.966Z,68.30
2018-02-24T02:49:39.128Z,69.10
2018-02-24T02:52:05.300Z,67.50
2018-02-24T02:54:32.207Z,68.90
2018-02-24T02:56:58.417Z,68.80
2018-02-24T02:59:24.638Z,69.20
2018-02-24T03:01:50.837Z,70.00
2018-02-24T03:04:17.790Z,70.70
2018-02-24T03:06:44.725Z,70.10
2018-02-24T03:09:10.908Z,70.00
2018-02-24T03:11:37.806Z,70.30
2018-02-24T03:14:03.982Z,70.20
2018-02-24T03:16:30.290Z,70.00
2018-02-24T03:18:56.806Z,70.20
2018-02-24T03:21:23.792Z,70.60
2018-02-24T03:23:49.947Z,70.50
2018-02-24T03:26:16.869Z,70.00
2018-02-24T03:28:43.798Z,71.00
2018-02-24T03:31:09.997Z,71.00
2018-02-24T03:33:36.180Z,70.90
2018-02-24T03:36:02.419Z,71.10
2018-02-24T03:38:29.336Z,71.90
2018-02-24T03:40:55.539Z,71.90
2018-02-24T03:43:21.912Z,72.10
2018-02-24T03:45:54.880Z,73.00
2018-02-24T03:48:21.011Z,73.00
2018-02-24T03:50:47.577Z,73.10
2018-02-24T03:53:13.736Z,72.90
2018-02-24T03:55:39.912Z,73.00
2018-02-24T03:58:06.285Z,73.10
2018-02-24T04:00:32.441Z,73.30
2018-02-24T04:02:58.605Z,73.70
2018-02-24T04:05:24.905Z,74.40
2018-02-24T04:07:51.097Z,74.90
2018-02-24T04:10:17.264Z,75.00
2018-02-24T04:12:43.445Z,74.80
2018-02-24T04:15:09.632Z,75.10
2018-02-24T04:17:35.860Z,75.10
2018-02-24T04:20:03.307Z,74.10
2018-02-24T04:22:29.453Z,74.00
2018-02-24T04:24:55.624Z,74.30
2018-02-24T04:27:22.019Z,74.10
2018-02-24T04:29:48.152Z,74.10
2018-02-24T04:32:14.317Z,74.10
2018-02-24T04:34:41.244Z,73.60
2018-02-24T04:37:07.412Z,73.50
2018-02-24T04:39:33.556Z,73.40
2018-02-24T04:42:00.534Z,74.00
2018-02-24T04:44:26.711Z,74.00
2018-02-24T04:46:52.877Z,74.20
2018-02-24T04:49:19.800Z,72.60
2018-02-24T04:51:46.026Z,72.60
2018-02-24T04:54:12.931Z,72.20
2018-02-24T04:56:39.111Z,72.20
2018-02-24T04:59:05.311Z,72.40
2018-02-24T05:01:31.481Z,72.50
2018-02-24T05:03:57.689Z,72.50
2018-02-24T05:06:23.865Z,73.10
2018-02-24T05:08:50.779Z,73.00
2018-02-24T05:11:16.929Z,72.90
2018-02-24T05:13:43.848Z,73.70
2018-02-24T05:16:10.303Z,73.70
2018-02-24T05:18:36.532Z,73.60
2018-02-24T05:21:02.728Z,73.50
2018-02-24T05:23:28.979Z,73.30
2018-02-24T05:25:55.129Z,73.30
2018-02-24T05:28:21.292Z,73.60
2018-02-24T05:30:47.523Z,74.00
2018-02-24T05:33:13.684Z,74.60
2018-02-24T05:35:39.861Z,75.00
2018-02-24T05:38:06.093Z,75.10
2018-02-24T05:40:32.279Z,75.30
2018-02-24T05:42:59.187Z,75.60
2018-02-24T05:45:25.348Z,75.60
2018-02-24T05:47:51.512Z,75.80
2018-02-24T05:50:17.689Z,75.90
2018-02-24T05:52:43.948Z,76.20
2018-02-24T05:55:10.881Z,76.20
2018-02-24T05:57:37.113Z,76.10
2018-02-24T06:00:03.300Z,76.20
2018-02-24T06:02:29.544Z,76.30
2018-02-24T06:04:56.072Z,76.10
2018-02-24T06:07:22.272Z,76.20
2018-02-24T06:09:48.490Z,76.00
2018-02-24T06:12:14.635Z,76.30
2018-02-24T06:14:41.572Z,76.30
2018-02-24T06:17:07.787Z,76.30
2018-02-24T06:19:33.986Z,76.20
2018-02-24T06:22:00.499Z,76.10
2018-02-24T06:24:27.396Z,75.80
2018-02-24T06:26:53.594Z,76.40
2018-02-24T06:29:19.748Z,76.40
2018-02-24T06:31:45.944Z,76.50
2018-02-24T06:34:12.159Z,76.60
2018-02-24T06:36:38.373Z,76.20
2018-02-24T06:39:04.551Z,76.00
2018-02-24T06:41:30.709Z,76.10
2018-02-24T06:43:57.652Z,76.50
2018-02-24T06:46:24.573Z,76.00
2018-02-24T06:48:50.710Z,75.90
2018-02-24T06:51:17.681Z,76.10
2018-02-24T06:53:44.633Z,76.60
2018-02-24T06:56:11.539Z,76.70
2018-02-24T06:58:37.702Z,76.60
2018-02-24T07:01:03.900Z,76.90
2018-02-24T07:03:30.105Z,77.10
2018-02-24T07:05:56.999Z,76.60
2018-02-24T07:08:23.184Z,76.60
2018-02-24T07:10:50.087Z,76.60
2018-02-24T07:13:16.276Z,76.60
2018-02-24T07:15:42.477Z,76.80
2018-02-24T07:18:08.667Z,76.70
2018-02-24T07:20:34.836Z,76.90
2018-02-24T07:23:01.771Z,77.20
2018-02-24T07:25:27.994Z,77.20
2018-02-24T07:27:54.948Z,77.10
2018-02-24T07:30:22.670Z,76.10
2018-02-24T07:32:48.832Z,76.10
2018-02-24T07:35:15.064Z,76.00
2018-02-24T07:37:41.243Z,76.60
2018-02-24T07:40:08.207Z,76.20
2018-02-24T07:42:34.363Z,76.10
2018-02-24T07:45:00.664Z,76.00
2018-02-24T07:47:26.825Z,75.20
2018-02-24T07:49:53.036Z,74.70
2018-02-24T07:52:19.232Z,74.20
2018-02-24T07:54:45.447Z,74.10
2018-02-24T07:57:11.647Z,72.80
2018-02-24T07:59:38.562Z,72.10
2018-02-24T08:02:04.741Z,72.00
2018-02-24T08:04:30.952Z,71.00
2018-02-24T08:06:57.128Z,71.00
2018-02-24T08:09:23.336Z,70.40
2018-02-24T08:11:50.527Z,68.10
2018-02-24T08:14:17.463Z,67.70
2018-02-24T08:16:43.659Z,67.70
2018-02-24T08:19:10.591Z,68.00
2018-02-24T08:21:36.784Z,67.90
2018-02-24T08:24:03.159Z,67.30
2018-02-24T08:26:29.491Z,66.50
2018-02-24T08:28:55.647Z,65.90
2018-02-24T08:31:23.305Z,63.30
2018-02-24T08:33:49.977Z,63.30
2018-02-24T08:36:16.382Z,64.00
2018-02-24T08:38:43.020Z,62.80
2018-02-24T08:41:10.384Z,62.00
2018-02-24T08:43:36.527Z,62.00
2018-02-24T08:46:03.441Z,62.50
2018-02-24T08:48:29.650Z,61.70
2018-02-24T08:50:55.864Z,61.10
2018-02-24T08:53:23.495Z,62.50
2018-02-24T08:55:49.672Z,62.50
2018-02-24T08:58:15.860Z,62.50
2018-02-24T09:00:43.514Z,63.10
2018-02-24T09:03:09.704Z,63.00
2018-02-24T09:05:36.591Z,61.80
2018-02-24T09:08:02.787Z,61.80
2018-02-24T09:10:29.043Z,61.30
2018-02-24T09:12:55.187Z,61.00
2018-02-24T09:15:21.344Z,61.70
2018-02-24T09:17:47.539Z,61.70
2018-02-24T09:20:13.712Z,61.10
2018-02-24T09:22:39.863Z,60.90
2018-02-24T09:25:06.156Z,60.30
2018-02-24T09:27:32.354Z,58.30
2018-02-24T09:29:58.576Z,58.00
2018-02-24T09:35:02.595Z,56.40
2018-02-24T09:37:28.764Z,55.80
2018-02-24T09:39:54.980Z,54.00
2018-02-24T09:42:22.089Z,48.90
2018-02-24T09:44:48.238Z,49.20
2018-02-24T09:47:14.420Z,47.10
2018-02-24T09:49:40.614Z,44.00
2018-02-24T09:52:06.798Z,43.30
2018-02-24T09:54:33.673Z,38.60
2018-02-24T09:56:59.829Z,38.50
2018-02-24T09:59:27.780Z,36.80
2018-02-24T10:01:53.936Z,36.80
2018-02-24T10:04:20.079Z,35.20
2018-02-24T10:06:46.308Z,34.80
2018-02-24T10:09:12.491Z,32.90
2018-02-24T10:11:38.640Z,30.60
2018-02-24T10:14:04.830Z,30.50
2018-02-24T10:16:31.723Z,29.20
2018-02-24T10:18:57.890Z,29.20
2018-02-24T10:21:24.060Z,29.30
2018-02-24T10:23:50.976Z,27.90
2018-02-24T10:26:17.580Z,28.30
2018-02-24T10:28:44.060Z,28.60
2018-02-24T10:31:10.964Z,28.60
2018-02-24T10:33:37.139Z,28.10
2018-02-24T10:36:03.300Z,27.60
2018-02-24T10:38:29.486Z,26.20
2018-02-24T10:40:55.668Z,25.40
2018-02-24T10:43:22.580Z,26.30
2018-02-24T10:45:48.724Z,26.20
2018-02-24T10:48:14.892Z,26.80
2018-02-24T10:50:41.086Z,27.70
2018-02-24T10:53:08.735Z,29.30
2018-02-24T10:55:34.888Z,29.30
2018-02-24T10:58:01.035Z,28.80
2018-02-24T11:00:27.280Z,29.30
2018-02-24T11:02:54.226Z,29.00
2018-02-24T11:05:22.056Z,29.70
2018-02-24T11:07:48.966Z,31.00
2018-02-24T11:10:15.135Z,31.00
2018-02-24T11:12:41.351Z,29.90
2018-02-24T11:15:07.501Z,29.60
2018-02-24T11:17:33.672Z,29.20
2018-02-24T11:20:00.610Z,29.80
2018-02-24T11:22:26.788Z,29.70
2018-02-24T11:24:52.935Z,29.90
2018-02-24T11:27:19.120Z,31.10
2018-02-24T11:29:45.367Z,30.90
2018-02-24T11:32:11.582Z,33.00
2018-02-24T11:34:37.752Z,32.50
2018-02-24T11:37:03.934Z,32.80
2018-02-24T11:39:36.272Z,34.00
2018-02-24T11:42:02.488Z,35.00
2018-02-24T11:44:28.672Z,34.00
2018-02-24T11:46:54.862Z,32.70
2018-02-24T11:49:21.054Z,32.90
2018-02-24T11:51:47.210Z,34.10
2018-02-24T11:54:13.415Z,34.50
2018-02-24T11:56:39.601Z,35.50
2018-02-24T11:59:05.782Z,35.20
2018-02-24T12:01:33.428Z,33.40
2018-02-24T12:03:59.970Z,33.40
2018-02-24T12:06:26.109Z,31.00
2018-02-24T12:08:52.255Z,32.40
2018-02-24T12:11:18.444Z,33.20
2018-02-24T12:13:44.646Z,31.60
2018-02-24T12:16:10.762Z,31.50
2018-02-24T12:18:36.929Z,30.80
2018-02-24T12:21:03.087Z,31.40
2018-02-24T12:23:29.282Z,30.50
2018-02-24T12:25:56.181Z,32.00
2018-02-24T12:28:22.361Z,31.80
2018-02-24T12:30:49.664Z,29.70
2018-02-24T12:33:15.872Z,29.70
2018-02-24T12:35:42.084Z,30.90
2018-02-24T12:38:09.044Z,29.20
2018-02-24T12:40:35.211Z,29.10
2018-02-24T12:43:01.496Z,29.50
2018-02-24T12:45:28.438Z,29.40
2018-02-24T12:47:54.640Z,29.30
2018-02-24T12:50:20.821Z,29.80
2018-02-24T12:52:48.040Z,29.30
2018-02-24T12:55:14.201Z,29.30
2018-02-24T12:57:41.115Z,28.80
2018-02-24T13:00:08.422Z,30.00
2018-02-24T13:02:34.587Z,30.00
2018-02-24T13:05:00.784Z,29.90
2018-02-24T13:07:26.972Z,30.20
2018-02-24T13:09:53.199Z,30.80
2018-02-24T13:12:19.373Z,30.60
2018-02-24T13:14:45.717Z,31.40
2018-02-24T13:17:11.873Z,31.90
2018-02-24T13:19:38.800Z,33.00
2018-02-24T13:22:05.724Z,35.00
2018-02-24T13:24:31.893Z,34.90
2018-02-24T13:26:58.064Z,34.50
2018-02-24T13:29:25.168Z,35.20
2018-02-24T13:31:52.092Z,36.10
2018-02-24T13:34:18.279Z,36.10
2018-02-24T13:36:44.620Z,35.60
2018-02-24T13:39:11.516Z,36.40
2018-02-24T13:41:37.668Z,36.30
2018-02-24T13:44:03.892Z,36.60
2018-02-24T13:46:30.069Z,35.80
2018-02-24T13:48:56.248Z,35.90
2018-02-24T13:51:22.451Z,36.60
2018-02-24T13:53:48.636Z,37.30
2018-02-24T13:56:15.594Z,36.20
2018-02-24T13:58:42.537Z,36.80
2018-02-24T14:01:08.712Z,37.20
2018-02-24T14:03:34.913Z,37.00
2018-02-24T14:06:01.826Z,36.90
2018-02-24T14:08:28.040Z,36.90
2018-02-24T14:10:54.217Z,37.50
2018-02-24T14:13:20.392Z,37.80
2018-02-24T14:15:47.336Z,41.30
2018-02-24T14:18:14.243Z,39.50
2018-02-24T14:20:40.434Z,39.40
2018-02-24T14:23:06.632Z,39.00
2018-02-24T14:25:33.560Z,40.80
2018-02-24T14:27:59.733Z,40.70
2018-02-24T14:30:26.140Z,42.10
2018-02-24T14:32:52.316Z,43.00
2018-02-24T14:35:18.814Z,44.10
2018-02-24T14:37:45.820Z,43.40
2018-02-24T14:40:12.020Z,43.40
2018-02-24T14:42:38.979Z,42.80
2018-02-24T14:45:05.871Z,40.50
2018-02-24T14:47:32.095Z,40.50
2018-02-24T14:49:58.312Z,40.50
2018-02-24T14:52:24.531Z,40.70
2018-02-24T14:54:50.737Z,41.80
2018-02-24T14:57:16.904Z,42.10
2018-02-24T14:59:43.124Z,42.10
2018-02-24T15:02:10.048Z,42.40
2018-02-24T15:04:36.230Z,42.40
2018-02-24T15:07:03.141Z,43.20
2018-02-24T15:09:29.288Z,43.10
2018-02-24T15:11:56.249Z,42.90
2018-02-24T15:14:23.159Z,41.60
2018-02-24T15:16:49.308Z,41.50
2018-02-24T15:19:16.328Z,42.00
2018-02-24T15:21:42.577Z,41.90
2018-02-24T15:24:08.756Z,42.50
2018-02-24T15:26:35.302Z,40.70
2018-02-24T15:29:02.222Z,41.20
2018-02-24T15:31:29.280Z,45.50
2018-02-24T15:33:56.215Z,44.40
2018-02-24T15:36:23.167Z,41.80
2018-02-24T15:38:49.365Z,41.80
2018-02-24T15:41:15.765Z,41.80
2018-02-24T15:43:41.957Z,41.90
2018-02-24T15:46:08.173Z,42.40
2018-02-24T15:48:34.365Z,41.90
2018-02-24T15:51:00.574Z,41.10
2018-02-24T15:53:26.808Z,40.60
2018-02-24T15:55:53.756Z,39.80
2018-02-24T15:58:19.943Z,39.80
2018-02-24T16:00:46.164Z,40.40
2018-02-24T16:03:13.444Z,40.30
2018-02-24T16:05:39.636Z,40.30
2018-02-24T16:08:06.044Z,40.50
2018-02-24T16:10:32.201Z,41.00
2018-02-24T16:12:58.399Z,41.30
2018-02-24T16:15:24.606Z,41.30
2018-02-24T16:17:50.840Z,42.90
2018-02-24T16:20:17.044Z,45.30
2018-02-24T16:22:43.968Z,45.80
2018-02-24T16:25:10.949Z,43.70
2018-02-24T16:27:37.899Z,43.70
2018-02-24T16:30:04.871Z,42.70
2018-02-24T16:32:38.392Z,43.10
2018-02-24T16:35:04.580Z,42.80
2018-02-24T16:37:31.722Z,41.20
2018-02-24T16:39:57.940Z,41.20
2018-02-24T16:42:24.103Z,41.70
2018-02-24T16:44:50.288Z,41.80
2018-02-24T16:47:16.447Z,41.70
2018-02-24T16:49:42.673Z,42.00
2018-02-24T16:52:09.202Z,41.80
2018-02-24T16:54:35.339Z,41.90
2018-02-24T16:57:01.985Z,43.00
2018-02-24T16:59:29.175Z,42.60
2018-02-24T17:01:57.024Z,42.60
2018-02-24T17:04:23.216Z,42.60
2018-02-24T17:06:49.395Z,42.40
2018-02-24T17:09:15.739Z,42.60
2018-02-24T17:11:41.899Z,43.80
2018-02-24T17:14:08.851Z,43.00
2018-02-24T17:16:36.456Z,43.30
2018-02-24T17:19:02.608Z,43.20
2018-02-24T17:21:28.776Z,43.30
2018-02-24T17:23:56.326Z,43.60
2018-02-24T17:26:22.540Z,43.50
2018-02-24T17:28:48.755Z,44.20
2018-02-24T17:31:15.317Z,44.70
2018-02-24T17:33:42.393Z,46.90
2018-02-24T17:36:08.580Z,46.80
2018-02-24T17:38:34.803Z,48.60
2018-02-24T17:41:00.944Z,49.00
2018-02-24T17:43:27.142Z,50.10
2018-02-24T17:45:53.452Z,50.60
2018-02-24T17:48:21.091Z,49.80
2018-02-24T17:50:47.257Z,49.70
2018-02-24T17:53:14.499Z,49.90
2018-02-24T17:55:40.709Z,49.80
2018-02-24T17:58:06.876Z,50.00
2018-02-24T18:00:33.042Z,49.50
2018-02-24T18:02:59.228Z,48.90
2018-02-24T18:05:25.428Z,48.40
2018-02-24T18:07:51.621Z,48.60
2018-02-24T18:10:18.577Z,48.40
2018-02-24T18:12:45.504Z,48.60
2018-02-24T18:15:11.821Z,48.60
2018-02-24T18:17:38.002Z,48.40
2018-02-24T18:20:04.900Z,49.80
2018-02-24T18:22:31.055Z,49.80
2018-02-24T18:24:57.239Z,49.80
2018-02-24T18:27:23.442Z,49.50
2018-02-24T18:29:50.352Z,50.20
2018-02-24T18:32:16.508Z,50.10
2018-02-24T18:34:42.968Z,50.70
2018-02-24T18:37:09.944Z,51.80
2018-02-24T18:39:36.080Z,51.60
2018-02-24T18:42:02.285Z,51.80
2018-02-24T18:44:28.444Z,52.10
2018-02-24T18:46:54.646Z,52.00
2018-02-24T18:49:21.581Z,52.40
2018-02-24T18:51:47.756Z,52.40
2018-02-24T18:54:14.025Z,52.80
2018-02-24T18:56:40.214Z,52.20
2018-02-24T18:59:07.116Z,51.90
2018-02-24T19:01:33.312Z,51.70
2018-02-24T19:03:59.548Z,51.50
2018-02-24T19:06:25.704Z,51.70
2018-02-24T19:08:51.892Z,52.00
2018-02-24T19:11:18.091Z,52.20
2018-02-24T19:13:44.304Z,52.50
2018-02-24T19:16:10.468Z,52.60
2018-02-24T19:18:36.627Z,53.10
2018-02-24T19:21:03.549Z,53.30
2018-02-24T19:23:29.756Z,53.30
2018-02-24T19:25:55.948Z,53.50
2018-02-24T19:28:22.872Z,56.50
2018-02-24T19:30:49.083Z,56.50
2018-02-24T19:33:15.228Z,56.20
2018-02-24T19:35:41.589Z,56.70
2018-02-24T19:38:07.820Z,55.00
2018-02-24T19:40:34.744Z,55.60
2018-02-24T19:43:00.953Z,55.60
2018-02-24T19:45:27.141Z,57.30
2018-02-24T19:47:53.407Z,56.20
2018-02-24T19:50:19.609Z,55.70
2018-02-24T19:52:45.836Z,56.00
2018-02-24T19:55:12.431Z,56.10
2018-02-24T19:57:38.600Z,56.20
2018-02-24T20:00:04.839Z,56.30
2018-02-24T20:02:30.985Z,56.60
2018-02-24T20:04:57.192Z,56.60
2018-02-24T20:07:23.355Z,56.70
2018-02-24T20:09:49.512Z,57.00
2018-02-24T20:12:15.705Z,57.10
2018-02-24T20:14:41.860Z,57.20
2018-02-24T20:17:08.008Z,57.40
2018-02-24T20:19:34.227Z,57.70
2018-02-24T20:22:00.416Z,57.90
2018-02-24T20:24:26.579Z,58.10
2018-02-24T20:26:52.784Z,58.20
2018-02-24T20:29:18.985Z,58.70
2018-02-24T20:31:45.930Z,58.80
2018-02-24T20:34:12.131Z,58.60
2018-02-24T20:36:38.313Z,58.90
2018-02-24T20:39:04.495Z,59.30
2018-02-24T20:41:30.671Z,59.40
2018-02-24T20:43:56.839Z,59.50
2018-02-24T20:46:23.053Z,60.00
2018-02-24T20:48:49.252Z,60.70
2018-02-24T20:51:15.440Z,61.60
2018-02-24T20:53:41.626Z,61.60
2018-02-24T20:56:07.816Z,62.00
2018-02-24T20:58:34.004Z,63.30
2018-02-24T21:01:00.913Z,62.30
2018-02-24T21:03:27.140Z,62.30
2018-02-24T21:05:53.308Z,62.60
2018-02-24T21:08:19.529Z,62.80
2018-02-24T21:10:46.543Z,63.40
2018-02-24T21:13:12.780Z,63.40
2018-02-24T21:15:38.988Z,63.80
2018-02-24T21:18:05.133Z,63.10
2018-02-24T21:20:31.352Z,63.60
2018-02-24T21:22:58.273Z,62.40
2018-02-24T21:25:24.424Z,62.30
2018-02-24T21:27:51.348Z,63.10
2018-02-24T21:30:18.275Z,63.20
2018-02-24T21:32:44.431Z,63.20
2018-02-24T21:35:10.619Z,63.50
2018-02-24T21:37:36.988Z,63.70
2018-02-24T21:40:03.934Z,64.20
2018-02-24T21:42:30.571Z,64.10
2018-02-24T21:44:56.756Z,64.60
2018-02-24T21:47:23.660Z,64.30
2018-02-24T21:49:49.824Z,64.30
2018-02-24T21:52:16.007Z,64.40
2018-02-24T21:54:42.224Z,64.50
2018-02-24T21:57:09.209Z,64.30
2018-02-24T21:59:35.749Z,64.30
2018-02-24T22:02:02.193Z,64.40
2018-02-24T22:04:28.386Z,64.60
2018-02-24T22:06:54.588Z,64.70
2018-02-24T22:09:20.740Z,65.00
2018-02-24T22:11:46.920Z,64.90
2018-02-24T22:14:13.136Z,65.50
2018-02-24T22:16:39.299Z,65.00
2018-02-24T22:19:05.508Z,65.20
2018-02-24T22:21:31.696Z,65.60
2018-02-24T22:23:58.633Z,65.10
2018-02-24T22:26:25.582Z,65.70
2018-02-24T22:28:51.796Z,65.60
2018-02-24T22:31:18.053Z,65.40
2018-02-24T22:33:44.249Z,64.70
2018-02-24T22:36:10.406Z,65.00
2018-02-24T22:38:37.474Z,64.80
2018-02-24T22:41:03.641Z,64.80
2018-02-24T22:43:30.572Z,64.70
2018-02-24T22:45:56.994Z,64.70
2018-02-24T22:48:29.337Z,64.80
2018-02-24T22:50:55.480Z,64.90
2018-02-24T22:53:21.706Z,64.60
2018-02-24T22:55:47.863Z,64.80
2018-02-24T22:58:14.056Z,64.70
2018-02-24T23:00:40.508Z,65.10
2018-02-24T23:03:06.694Z,65.40
2018-02-24T23:05:32.851Z,65.30
2018-02-24T23:07:59.214Z,65.00
2018-02-24T23:10:25.391Z,65.50
2018-02-24T23:12:51.551Z,65.90
2018-02-24T23:15:17.775Z,65.90
2018-02-24T23:17:44.676Z,65.90
2018-02-24T23:20:10.876Z,66.00
2018-02-24T23:22:37.042Z,65.70
2018-02-24T23:25:03.236Z,65.90
2018-02-24T23:27:29.420Z,66.40
2018-02-24T23:29:55.611Z,67.30
2018-02-24T23:32:21.816Z,67.30
2018-02-24T23:34:48.173Z,67.90
2018-02-24T23:37:15.079Z,67.80
2018-02-24T23:39:41.627Z,67.80
2018-02-24T23:42:07.842Z,68.20
2018-02-24T23:44:34.091Z,68.80
2018-02-24T23:47:00.275Z,69.00
2018-02-24T23:49:26.865Z,69.00
2018-02-24T23:51:53.824Z,69.70
2018-02-24T23:54:20.223Z,69.70
2018-02-24T23:56:47.214Z,70.00
2018-02-24T23:59:13.400Z,70.00
